Time;durP1;ratioP1;P1;durP2;ratioP2;P2;SDS_P1;SDS_P2;PMS_P1;PMS_P2;Temp;Humidity;BMP_temperature;BMP_pressure;BME280_temperature;BME280_humidity;BME280_pressure;Samples;Min_cycle;Max_cycle;Signal;HPM_P1;HPM_P2
2021/03/21 00:02:16;;;;;;;;;;;;;;;7.49;36.66;101133.88;5015307;28;19917;-79
2021/03/21 00:05:00;;;;;;;;;;;;;;;7.50;36.59;101130.88;5013365;28;20372;-80
2021/03/21 00:07:45;;;;;;;;;;;;;;;7.34;36.14;101136.69;5017797;28;19918;-80
2021/03/21 00:10:30;;;;;;;;;;;;;;;7.38;36.20;101130.44;4998944;28;19922;-80
2021/03/21 00:13:15;;;;;;;;;;;;;;;7.40;35.75;101128.25;4999982;28;19917;-80
2021/03/21 00:16:00;;;;;;;;;;;;;;;7.32;35.89;101134.28;5016943;28;19917;-80
2021/03/21 00:18:46;;;;;;;;;;;;;;;7.45;35.99;101119.28;5001360;28;19917;-81
2021/03/21 00:21:31;;;;;;;;;;;;;;;7.47;34.74;101120.59;4989754;28;20392;-81
2021/03/21 00:24:15;;;;;;;;;;;;;;;7.42;34.59;101117.13;5017392;28;20368;-81
2021/03/21 00:27:00;;;;;;;;;;;;;;;7.36;35.44;101112.88;5015454;28;19917;-81
2021/03/21 00:29:45;;;;;;;;;;;;;;;7.23;35.68;101106.22;5011779;28;19921;-82
2021/03/21 00:32:29;;;;;;;;;;;;;;;7.29;35.04;101107.78;4991276;28;19918;-81
2021/03/21 00:35:14;;;;;;;;;;;;;;;7.24;34.71;101105.94;5012457;28;19917;-81
2021/03/21 00:38:03;;;;;;;;;;;;;;;7.16;34.96;101097.63;4981171;28;20008;-81
2021/03/21 00:40:47;;;;;;;;;;;;;;;7.30;35.02;101095.88;4998528;28;19918;-80
2021/03/21 00:43:33;;;;;;;;;;;;;;;7.13;34.34;101098.19;4996227;28;19922;-81
2021/03/21 00:46:18;;;;;;;;;;;;;;;7.17;34.93;101089.22;4994812;28;20376;-82
2021/03/21 00:49:03;;;;;;;;;;;;;;;7.01;34.87;101086.94;5001856;28;19922;-81
2021/03/21 00:51:47;;;;;;;;;;;;;;;7.15;34.13;101091.41;4997472;28;19918;-81
2021/03/21 00:54:32;;;;;;;;;;;;;;;7.10;34.39;101083.34;4999023;28;19917;-81
2021/03/21 00:57:17;;;;;;;;;;;;;;;7.04;35.29;101078.25;5017096;28;19917;-81
2021/03/21 01:00:02;;;;;;;;;;;;;;;7.10;34.57;101077.94;4998681;28;19918;-81
2021/03/21 01:02:47;;;;;;;;;;;;;;;7.03;34.37;101073.94;5003865;28;19917;-81
2021/03/21 01:05:32;;;;;;;;;;;;;;;7.15;34.16;101072.50;5008441;28;19917;-81
2021/03/21 01:08:16;;;;;;;;;;;;;;;6.99;33.96;101076.41;5015920;28;19918;-80
2021/03/21 01:11:04;;;;;;;;;;;;;;;6.96;35.08;101076.16;4999874;28;19922;-81
2021/03/21 01:13:48;;;;;;;;;;;;;;;6.99;34.18;101075.59;5002055;28;19917;-80
2021/03/21 01:16:38;;;;;;;;;;;;;;;7.00;34.11;101071.81;5015959;28;19918;-81
2021/03/21 01:19:22;;;;;;;;;;;;;;;7.01;33.73;101063.38;5016875;28;19943;-81
2021/03/21 01:22:07;;;;;;;;;;;;;;;6.95;34.84;101071.84;5006283;28;19921;-79
2021/03/21 01:24:52;;;;;;;;;;;;;;;7.02;35.73;101062.31;5019219;28;19917;-81
2021/03/21 01:27:36;;;;;;;;;;;;;;;7.11;35.30;101068.72;4998988;28;19918;-80
2021/03/21 01:30:21;;;;;;;;;;;;;;;7.19;35.97;101064.59;5037535;22;19928;-82
2021/03/21 01:33:06;;;;;;;;;;;;;;;6.99;34.14;101064.78;5061403;28;19921;-82
2021/03/21 01:35:51;;;;;;;;;;;;;;;7.03;37.28;101057.72;5062215;28;19916;-82
2021/03/21 01:38:35;;;;;;;;;;;;;;;6.86;34.75;101061.63;5083515;28;19924;-83
2021/03/21 01:41:25;;;;;;;;;;;;;;;6.62;34.48;101060.72;5080374;28;19916;-83
2021/03/21 01:44:13;;;;;;;;;;;;;;;6.54;34.31;101055.09;5080040;28;20392;-82
2021/03/21 01:46:57;;;;;;;;;;;;;;;6.21;34.17;101045.81;5077263;28;19916;-83
2021/03/21 01:49:45;;;;;;;;;;;;;;;6.45;37.15;101052.16;5064429;28;19921;-83
2021/03/21 01:52:39;;;;;;;;;;;;;;;6.47;36.76;101047.31;5059565;28;19917;-83
2021/03/21 01:55:24;;;;;;;;;;;;;;;6.49;35.10;101044.31;5081839;28;19916;-81
2021/03/21 01:58:09;;;;;;;;;;;;;;;6.23;35.19;101046.38;5079532;28;19916;-82
2021/03/21 02:00:55;;;;;;;;;;;;;;;6.28;35.07;101049.03;5059286;28;19917;-82
2021/03/21 02:03:40;;;;;;;;;;;;;;;6.33;34.78;101041.72;5063181;28;20316;-83
2021/03/21 02:06:39;;;;;;;;;;;;;;;6.24;35.24;101042.59;5081064;28;19916;-83
2021/03/21 02:09:32;;;;;;;;;;;;;;;5.96;35.72;101030.56;5064817;28;19920;-84
2021/03/21 02:12:17;;;;;;;;;;;;;;;6.07;35.01;101031.31;5062127;28;19917;-83
2021/03/21 02:15:20;;;;;;;;;;;;;;;5.86;35.08;101030.56;5060246;28;19917;-83
2021/03/21 02:18:23;;;;;;;;;;;;;;;6.02;35.35;101026.75;5057859;28;19920;-83
2021/03/21 02:21:17;;;;;;;;;;;;;;;6.17;35.13;101032.06;5069612;28;19916;-84
2021/03/21 02:24:21;;;;;;;;;;;;;;;6.29;35.11;101018.25;5064447;28;19916;-84
2021/03/21 02:27:26;;;;;;;;;;;;;;;6.24;34.61;101024.50;5062440;28;19920;-83
2021/03/21 02:30:17;;;;;;;;;;;;;;;6.32;33.91;101023.91;5070740;28;19921;-84
2021/03/21 02:33:09;;;;;;;;;;;;;;;6.33;34.76;101022.81;5082721;28;20382;-84
2021/03/21 02:36:02;;;;;;;;;;;;;;;6.46;34.47;101015.97;5078889;28;19917;-84
2021/03/21 02:38:52;;;;;;;;;;;;;;;6.68;33.86;101018.25;5057984;28;19916;-83
2021/03/21 02:41:41;;;;;;;;;;;;;;;6.66;33.16;101015.81;5061507;28;19921;-83
2021/03/21 02:44:28;;;;;;;;;;;;;;;6.61;33.07;101005.06;5050099;28;19920;-83
2021/03/21 02:47:16;;;;;;;;;;;;;;;6.71;34.57;101002.28;5067422;28;19917;-84
2021/03/21 02:50:06;;;;;;;;;;;;;;;6.61;33.60;100999.66;5060655;28;19921;-84
2021/03/21 02:52:54;;;;;;;;;;;;;;;6.58;33.48;100994.00;5058991;28;19917;-83
2021/03/21 02:55:40;;;;;;;;;;;;;;;6.40;34.07;100992.78;5041418;28;19917;-83
2021/03/21 02:58:34;;;;;;;;;;;;;;;6.44;33.96;100991.16;5066039;28;19917;-83
2021/03/21 03:01:24;;;;;;;;;;;;;;;6.47;34.10;100987.88;5069214;28;20376;-83
2021/03/21 03:04:12;;;;;;;;;;;;;;;6.37;33.87;100993.34;5061744;28;19921;-83
2021/03/21 03:06:59;;;;;;;;;;;;;;;6.54;33.20;100990.25;5059419;28;19917;-83
2021/03/21 03:09:46;;;;;;;;;;;;;;;6.67;32.79;100985.03;5065303;28;19921;-83
2021/03/21 03:12:32;;;;;;;;;;;;;;;6.91;32.45;100984.31;5081230;28;19924;-82
2021/03/21 03:15:18;;;;;;;;;;;;;;;6.86;33.41;100985.13;5061864;28;19916;-83
2021/03/21 03:18:05;;;;;;;;;;;;;;;6.83;33.40;100983.00;5063896;28;19916;-83
2021/03/21 03:20:52;;;;;;;;;;;;;;;6.90;33.14;100974.56;5077958;28;19916;-82
2021/03/21 03:23:44;;;;;;;;;;;;;;;6.73;32.53;100981.19;5079787;28;20395;-83
2021/03/21 03:26:47;;;;;;;;;;;;;;;6.77;32.07;100976.81;5077904;28;19917;-82
2021/03/21 03:29:47;;;;;;;;;;;;;;;6.73;31.88;100967.69;5070318;28;20308;-83
2021/03/21 03:32:31;;;;;;;;;;;;;;;6.49;32.17;100961.41;5057095;28;19917;-83
2021/03/21 03:35:18;;;;;;;;;;;;;;;6.35;32.65;100965.78;5046109;28;20376;-82
2021/03/21 03:38:04;;;;;;;;;;;;;;;6.29;33.56;100964.25;5060733;28;19917;-83
2021/03/21 03:40:50;;;;;;;;;;;;;;;6.31;33.21;100962.06;5056850;28;19917;-83
2021/03/21 03:43:54;;;;;;;;;;;;;;;6.27;33.63;100969.09;5061027;28;19924;-83
2021/03/21 03:46:39;;;;;;;;;;;;;;;6.29;33.46;100967.75;5070358;28;19917;-83
2021/03/21 03:49:28;;;;;;;;;;;;;;;6.24;34.03;100967.78;5075931;28;20308;-83
2021/03/21 03:52:12;;;;;;;;;;;;;;;6.36;37.20;100964.72;5080759;28;19916;-82
2021/03/21 03:55:10;;;;;;;;;;;;;;;6.23;36.00;100966.16;5078832;28;19916;-83
2021/03/21 03:58:01;;;;;;;;;;;;;;;6.12;37.39;100961.09;5074223;28;19917;-82
2021/03/21 04:01:01;;;;;;;;;;;;;;;5.90;37.03;100954.19;5059899;28;19920;-84
2021/03/21 04:03:51;;;;;;;;;;;;;;;5.80;37.26;100950.72;5076063;28;19920;-84
2021/03/21 04:06:47;;;;;;;;;;;;;;;5.63;38.20;100958.38;5076881;28;19917;-84
2021/03/21 04:09:34;;;;;;;;;;;;;;;5.73;37.79;100956.44;5064205;28;19916;-84
2021/03/21 04:12:22;;;;;;;;;;;;;;;5.76;38.31;100961.25;5076708;28;19916;-84
2021/03/21 04:15:10;;;;;;;;;;;;;;;5.89;39.18;100960.69;5080231;28;19916;-83
2021/03/21 04:18:07;;;;;;;;;;;;;;;6.01;38.95;100961.16;5067384;28;19917;-84
2021/03/21 04:20:56;;;;;;;;;;;;;;;5.93;39.73;100966.34;5055753;28;19916;-83
2021/03/21 04:24:06;;;;;;;;;;;;;;;5.70;43.40;100969.66;5044120;28;19916;-83
2021/03/21 04:26:54;;;;;;;;;;;;;;;5.48;39.71;100964.63;5056510;28;19916;-83
2021/03/21 04:29:42;;;;;;;;;;;;;;;5.42;39.34;100957.63;5069294;28;20316;-82
2021/03/21 04:32:36;;;;;;;;;;;;;;;5.27;39.16;100957.69;5077808;28;19921;-82
2021/03/21 04:35:38;;;;;;;;;;;;;;;5.10;39.53;100961.47;5073634;28;19917;-82
2021/03/21 04:38:46;;;;;;;;;;;;;;;5.18;41.05;100960.91;5078445;28;20304;-83
2021/03/21 04:41:38;;;;;;;;;;;;;;;4.65;38.76;100951.56;5072111;28;19916;-83
2021/03/21 04:44:25;;;;;;;;;;;;;;;4.85;42.02;100950.75;5075693;28;19917;-84
2021/03/21 04:47:13;;;;;;;;;;;;;;;5.09;38.55;100954.47;5057514;28;19916;-83
2021/03/21 04:49:58;;;;;;;;;;;;;;;4.94;40.65;100949.09;5060311;28;19920;-82
2021/03/21 04:52:45;;;;;;;;;;;;;;;4.99;38.52;100954.47;5058360;28;19916;-82
2021/03/21 04:55:30;;;;;;;;;;;;;;;4.77;39.38;100947.78;5066133;28;20299;-83
2021/03/21 04:58:25;;;;;;;;;;;;;;;4.96;41.73;100951.53;5077946;28;19916;-83
2021/03/21 05:01:13;;;;;;;;;;;;;;;4.79;39.07;100940.22;5062423;28;19917;-82
2021/03/21 05:04:02;;;;;;;;;;;;;;;4.74;38.85;100949.94;5076621;28;20304;-83
2021/03/21 05:06:47;;;;;;;;;;;;;;;4.61;38.47;100944.31;5068710;28;19916;-82
2021/03/21 05:09:35;;;;;;;;;;;;;;;4.94;39.10;100951.81;5078624;28;19917;-82
2021/03/21 05:12:26;;;;;;;;;;;;;;;5.05;37.34;100947.22;5076058;28;19928;-83
2021/03/21 05:15:14;;;;;;;;;;;;;;;5.07;36.88;100945.88;5074977;28;19920;-84
2021/03/21 05:18:15;;;;;;;;;;;;;;;5.12;37.61;100943.16;5059596;28;19916;-84
2021/03/21 05:21:25;;;;;;;;;;;;;;;5.03;38.21;100952.84;5055812;28;19917;-83
2021/03/21 05:24:10;;;;;;;;;;;;;;;5.04;37.96;100951.78;5058719;28;19921;-83
2021/03/21 05:27:24;;;;;;;;;;;;;;;5.04;38.17;100959.06;5057823;28;19917;-83
2021/03/21 05:30:20;;;;;;;;;;;;;;;5.14;40.60;100959.84;5063225;28;19920;-83
2021/03/21 05:33:06;;;;;;;;;;;;;;;5.03;38.12;100954.75;5076160;28;19916;-83
2021/03/21 05:35:53;;;;;;;;;;;;;;;4.98;37.66;100954.75;5075159;28;19917;-83
2021/03/21 05:38:37;;;;;;;;;;;;;;;4.87;37.98;100947.78;5065614;28;19917;-82
2021/03/21 05:41:37;;;;;;;;;;;;;;;4.97;42.42;100951.28;5062371;28;19942;-82
2021/03/21 05:44:40;;;;;;;;;;;;;;;4.94;41.05;100951.00;5053590;28;20369;-81
2021/03/21 05:47:28;;;;;;;;;;;;;;;4.94;43.13;100953.69;5056956;28;20296;-83
2021/03/21 05:50:12;;;;;;;;;;;;;;;4.79;42.67;100951.00;5054767;28;20388;-84
2021/03/21 05:53:02;;;;;;;;;;;;;;;4.75;42.38;100939.97;5060591;28;19917;-84
2021/03/21 05:55:49;;;;;;;;;;;;;;;4.95;40.40;100947.22;5076126;28;20396;-83
2021/03/21 05:58:33;;;;;;;;;;;;;;;4.94;40.72;100949.09;5074580;28;20462;-84
2021/03/21 06:01:21;;;;;;;;;;;;;;;5.03;40.39;100949.34;5076158;28;20292;-83
2021/03/21 06:04:25;;;;;;;;;;;;;;;5.05;41.85;100948.00;5077102;28;19921;-82
2021/03/21 06:07:32;;;;;;;;;;;;;;;5.22;40.98;100949.59;5073396;28;19920;-83
2021/03/21 06:10:29;;;;;;;;;;;;;;;5.38;40.71;100949.28;5069358;28;19920;-83
2021/03/21 06:13:15;;;;;;;;;;;;;;;5.28;41.16;100952.03;5054216;28;20300;-88
2021/03/21 06:16:14;;;;;;;;;;;;;;;5.14;40.54;100954.47;5083634;28;19916;-89
2021/03/21 06:18:59;;;;;;;;;;;;;;;5.42;40.83;100954.94;5063697;28;19917;-89
2021/03/21 06:21:53;;;;;;;;;;;;;;;5.55;40.59;100946.25;5076861;28;19916;-89
2021/03/21 06:25:10;;;;;;;;;;;;;;;5.56;41.78;100945.16;5087210;28;19917;-89
2021/03/21 06:28:03;;;;;;;;;;;;;;;5.87;39.59;100952.06;5027783;28;19916;-88
2021/03/21 06:31:11;;;;;;;;;;;;;;;6.05;39.79;100945.22;5062301;28;20119;-89
2021/03/21 06:34:04;;;;;;;;;;;;;;;6.21;39.98;100943.22;5048832;28;19920;-88
2021/03/21 06:36:48;;;;;;;;;;;;;;;6.33;40.42;100943.69;5084703;28;19916;-87
2021/03/21 06:39:56;;;;;;;;;;;;;;;6.42;40.47;100945.50;5083376;28;19917;-88
2021/03/21 06:42:41;;;;;;;;;;;;;;;6.64;38.49;100949.66;5077408;28;19924;-89
2021/03/21 06:45:34;;;;;;;;;;;;;;;6.90;38.47;100950.25;5066966;28;20292;-88
2021/03/21 06:48:38;;;;;;;;;;;;;;;7.02;37.26;100956.06;5061189;28;19920;-89
2021/03/21 06:51:26;;;;;;;;;;;;;;;6.90;36.35;100951.06;5050086;28;20384;-88
2021/03/21 06:54:26;;;;;;;;;;;;;;;6.94;36.99;100937.75;5080909;28;20119;-88
2021/03/21 06:57:11;;;;;;;;;;;;;;;7.10;36.69;100948.16;5071127;28;20369;-88
2021/03/21 07:00:11;;;;;;;;;;;;;;;7.24;36.53;100945.56;5065213;28;19916;-89
2021/03/21 07:03:34;;;;;;;;;;;;;;;7.39;34.41;100939.16;5071245;28;19916;-87
2021/03/21 07:06:31;;;;;;;;;;;;;;;7.46;34.49;100929.63;5003122;28;19925;-88
2021/03/21 07:09:39;;;;;;;;;;;;;;;7.53;34.25;100940.88;5066460;28;19917;-88
2021/03/21 07:12:39;;;;;;;;;;;;;;;7.59;33.76;100928.91;5061724;28;19920;-88
2021/03/21 07:15:29;;;;;;;;;;;;;;;7.79;32.10;100929.75;5063035;28;19917;-88
2021/03/21 07:18:17;;;;;;;;;;;;;;;7.91;32.21;100930.13;5063254;28;20309;-89
2021/03/21 07:21:19;;;;;;;;;;;;;;;7.72;33.74;100932.78;5061733;28;19916;-88
2021/03/21 07:24:35;;;;;;;;;;;;;;;8.21;34.26;100935.09;5059477;28;20312;-88
2021/03/21 07:27:35;;;;;;;;;;;;;;;7.92;34.16;100937.16;5062388;28;19917;-88
2021/03/21 07:30:29;;;;;;;;;;;;;;;8.20;32.72;100933.47;5058503;28;19921;-88
2021/03/21 07:33:23;;;;;;;;;;;;;;;8.57;31.48;100928.06;5063756;28;20373;-87
2021/03/21 07:36:07;;;;;;;;;;;;;;;8.65;30.98;100934.69;5065385;28;19917;-87
2021/03/21 07:39:11;;;;;;;;;;;;;;;8.86;29.32;100935.16;5064425;28;19917;-88
2021/03/21 07:42:04;;;;;;;;;;;;;;;8.53;29.89;100927.03;5076223;22;19925;-82
2021/03/21 07:44:59;;;;;;;;;;;;;;;8.40;30.25;100924.28;5086447;28;19924;-83
2021/03/21 07:47:49;;;;;;;;;;;;;;;8.66;30.08;100921.94;5095595;28;19916;-83
2021/03/21 07:50:47;;;;;;;;;;;;;;;9.07;28.71;100911.97;5099164;28;19920;-81
2021/03/21 07:53:34;;;;;;;;;;;;;;;9.21;27.72;100918.22;5094211;28;19935;-84
2021/03/21 07:56:27;;;;;;;;;;;;;;;9.27;27.59;100917.03;5094298;28;19916;-83
2021/03/21 07:59:13;;;;;;;;;;;;;;;8.96;27.58;100924.13;5096944;28;20288;-82
2021/03/21 08:01:58;;;;;;;;;;;;;;;9.19;28.55;100917.72;5086868;28;19916;-81
2021/03/21 08:04:47;;;;;;;;;;;;;;;9.23;28.17;100921.44;5081902;28;19916;-82
2021/03/21 08:07:34;;;;;;;;;;;;;;;9.52;28.77;100920.31;5078150;28;19916;-82
2021/03/21 08:10:23;;;;;;;;;;;;;;;9.71;27.53;100918.28;5075731;28;20376;-81
2021/03/21 08:13:25;;;;;;;;;;;;;;;9.86;27.69;100909.81;5073161;28;19921;-82
2021/03/21 08:16:15;;;;;;;;;;;;;;;10.04;28.08;100913.50;5095499;28;19920;-82
2021/03/21 08:19:00;;;;;;;;;;;;;;;9.96;26.59;100912.28;5076599;28;19996;-82
2021/03/21 08:21:44;;;;;;;;;;;;;;;10.44;27.08;100911.75;5081252;28;19917;-84
2021/03/21 08:24:31;;;;;;;;;;;;;;;10.34;27.14;100904.66;5073142;28;19916;-84
2021/03/21 08:27:21;;;;;;;;;;;;;;;9.98;27.03;100895.69;5108869;28;19916;-84
2021/03/21 08:30:13;;;;;;;;;;;;;;;10.69;26.88;100900.25;5107688;28;19916;-85
2021/03/21 08:33:00;;;;;;;;;;;;;;;10.90;25.98;100900.53;5082751;28;19920;-84
2021/03/21 08:35:45;;;;;;;;;;;;;;;11.05;24.06;100895.47;5089836;28;19916;-84
2021/03/21 08:38:30;;;;;;;;;;;;;;;11.13;23.09;100891.16;5094940;28;20407;-83
2021/03/21 08:41:16;;;;;;;;;;;;;;;10.96;24.41;100886.47;5101327;28;20364;-84
2021/03/21 08:44:04;;;;;;;;;;;;;;;10.78;24.66;100892.94;5108619;28;19915;-81
2021/03/21 08:46:50;;;;;;;;;;;;;;;10.16;23.23;100890.13;5091774;28;19917;-83
2021/03/21 08:49:37;;;;;;;;;;;;;;;11.77;22.24;100891.56;5083217;28;19916;-81
2021/03/21 08:52:30;;;;;;;;;;;;;;;12.59;19.36;100891.38;5079489;28;19920;-81
2021/03/21 08:55:35;;;;;;;;;;;;;;;12.68;18.06;100880.41;5084721;28;19916;-83
2021/03/21 08:58:21;;;;;;;;;;;;;;;13.38;16.95;100885.31;5081007;28;20376;-82
2021/03/21 09:01:26;;;;;;;;;;;;;;;13.82;18.22;100872.16;5081002;28;19920;-81
2021/03/21 09:04:12;;;;;;;;;;;;;;;13.92;16.33;100871.75;5062193;28;19921;-81
2021/03/21 09:07:14;;;;;;;;;;;;;;;13.84;15.54;100878.09;5080946;28;20307;-82
2021/03/21 09:10:10;;;;;;;;;;;;;;;13.63;15.30;100876.16;5082475;28;19916;-82
2021/03/21 09:13:15;;;;;;;;;;;;;;;13.78;12.24;100865.75;5063609;28;19920;-82
2021/03/21 09:16:10;;;;;;;;;;;;;;;13.16;13.05;100861.00;5081202;28;20396;-81
2021/03/21 09:19:17;;;;;;;;;;;;;;;13.84;12.95;100850.78;5088752;28;20395;-80
2021/03/21 09:22:04;;;;;;;;;;;;;;;13.82;12.28;100855.75;5084182;28;19916;-84
2021/03/21 09:24:57;;;;;;;;;;;;;;;14.23;11.74;100846.72;5085837;28;20309;-81
2021/03/21 09:27:43;;;;;;;;;;;;;;;14.61;13.35;100843.81;5085684;28;19917;-84
2021/03/21 09:30:39;;;;;;;;;;;;;;;12.83;16.73;100849.88;5084750;28;20388;-81
2021/03/21 09:33:26;;;;;;;;;;;;;;;12.72;16.24;100845.91;5086265;28;20307;-79
2021/03/21 09:36:14;;;;;;;;;;;;;;;13.03;16.05;100845.63;5063821;28;19920;-82
2021/03/21 09:39:02;;;;;;;;;;;;;;;12.31;16.97;100850.00;5097441;28;19916;-80
2021/03/21 09:41:48;;;;;;;;;;;;;;;12.72;17.39;100835.78;5099318;28;19924;-81
2021/03/21 09:44:43;;;;;;;;;;;;;;;12.07;18.61;100841.53;5087026;28;19916;-81
2021/03/21 09:47:53;;;;;;;;;;;;;;;12.05;19.05;100827.44;5091210;28;19916;-81
2021/03/21 09:50:45;;;;;;;;;;;;;;;12.32;19.37;100829.00;5087782;28;19920;-81
2021/03/21 09:53:46;;;;;;;;;;;;;;;12.21;19.34;100819.56;5090540;28;20604;-82
2021/03/21 09:56:41;;;;;;;;;;;;;;;13.97;17.98;100822.34;5084615;28;19916;-81
2021/03/21 09:59:44;;;;;;;;;;;;;;;13.62;18.42;100819.91;5095793;28;19920;-82
2021/03/21 10:02:39;;;;;;;;;;;;;;;13.83;18.10;100819.09;5099164;28;20300;-82
2021/03/21 10:05:40;;;;;;;;;;;;;;;14.06;17.86;100823.09;5123338;28;19915;-79
2021/03/21 10:08:25;;;;;;;;;;;;;;;12.94;19.59;100814.84;5114739;28;19925;-82
2021/03/21 10:11:12;;;;;;;;;;;;;;;12.98;18.78;100802.13;5078406;28;20388;-82
2021/03/21 10:13:57;;;;;;;;;;;;;;;12.66;19.17;100790.72;5079708;28;19924;-81
2021/03/21 10:16:42;;;;;;;;;;;;;;;13.28;19.60;100801.03;5080142;28;19916;-82
2021/03/21 10:19:42;;;;;;;;;;;;;;;12.74;18.16;100789.88;5077960;28;19920;-82
2021/03/21 10:22:27;;;;;;;;;;;;;;;12.50;18.31;100778.72;5081363;28;20312;-81
2021/03/21 10:25:16;;;;;;;;;;;;;;;12.28;18.34;100777.06;5090865;28;19917;-82
2021/03/21 10:28:20;;;;;;;;;;;;;;;12.28;18.17;100782.50;5092382;28;20291;-79
2021/03/21 10:31:23;;;;;;;;;;;;;;;13.56;16.99;100777.50;5080198;28;19920;-81
2021/03/21 10:34:08;;;;;;;;;;;;;;;14.87;15.19;100770.38;5076998;28;19920;-81
2021/03/21 10:36:52;;;;;;;;;;;;;;;15.58;15.23;100776.13;5075632;28;19934;-81
2021/03/21 10:39:40;;;;;;;;;;;;;;;14.90;15.16;100769.69;5079568;28;19920;-81
2021/03/21 10:42:40;;;;;;;;;;;;;;;14.33;15.69;100762.31;5077800;28;20299;-82
2021/03/21 10:45:30;;;;;;;;;;;;;;;14.54;15.46;100751.31;5080048;28;19916;-81
2021/03/21 10:48:15;;;;;;;;;;;;;;;15.88;14.10;100759.34;5078936;28;19916;-82
2021/03/21 10:51:01;;;;;;;;;;;;;;;15.66;15.46;100749.72;5083202;28;19920;-82
2021/03/21 10:54:05;;;;;;;;;;;;;;;18.27;13.14;100743.28;5075320;28;19916;-80
2021/03/21 10:57:09;;;;;;;;;;;;;;;25.22;8.37;100758.78;5077229;28;19920;-82
2021/03/21 11:00:12;;;;;;;;;;;;;;;25.22;7.63;100755.22;5074775;28;20380;-82
2021/03/21 11:03:00;;;;;;;;;;;;;;;27.63;6.55;100750.31;5077080;28;19928;-81
2021/03/21 11:05:46;;;;;;;;;;;;;;;26.80;6.58;100741.09;5085911;28;19917;-82
2021/03/21 11:08:33;;;;;;;;;;;;;;;26.68;6.04;100749.25;5094851;28;19920;-84
2021/03/21 11:11:19;;;;;;;;;;;;;;;28.74;5.73;100743.81;5088642;28;20392;-84
2021/03/21 11:14:23;;;;;;;;;;;;;;;25.88;6.80;100730.56;5087488;28;19916;-84
2021/03/21 11:17:10;;;;;;;;;;;;;;;31.48;4.38;100748.16;5096659;28;20247;-85
2021/03/21 11:19:57;;;;;;;;;;;;;;;31.66;4.03;100727.81;5078685;28;20300;-84
2021/03/21 11:22:42;;;;;;;;;;;;;;;30.24;4.21;100718.69;5075698;28;19924;-84
2021/03/21 11:25:35;;;;;;;;;;;;;;;31.80;3.62;100718.81;5080340;28;19920;-83
2021/03/21 11:28:36;;;;;;;;;;;;;;;33.14;3.46;100725.75;5078389;28;19916;-84
2021/03/21 11:31:29;;;;;;;;;;;;;;;35.34;2.65;100716.63;5079562;28;19921;-84
2021/03/21 11:34:17;;;;;;;;;;;;;;;32.22;3.49;100714.34;5077022;28;19916;-84
2021/03/21 11:37:10;;;;;;;;;;;;;;;31.66;3.47;100705.31;5060004;28;20399;-84
2021/03/21 11:40:00;;;;;;;;;;;;;;;32.10;3.79;100703.94;5080177;28;19916;-85
2021/03/21 11:42:46;;;;;;;;;;;;;;;29.08;4.76;100703.31;5078709;28;19917;-84
2021/03/21 11:45:36;;;;;;;;;;;;;;;28.79;4.86;100695.69;5077771;28;19924;-82
2021/03/21 11:48:20;;;;;;;;;;;;;;;25.90;6.10;100686.34;5081428;28;19916;-83
2021/03/21 11:51:07;;;;;;;;;;;;;;;27.47;6.08;100693.56;5076283;28;20300;-84
2021/03/21 11:53:52;;;;;;;;;;;;;;;28.77;4.80;100689.72;5079799;28;19916;-83
2021/03/21 11:56:36;;;;;;;;;;;;;;;30.56;3.88;100681.97;5077809;28;19916;-83
2021/03/21 11:59:26;;;;;;;;;;;;;;;29.98;4.34;100675.03;5075704;28;19917;-81
2021/03/21 12:02:22;;;;;;;;;;;;;;;27.61;5.23;100665.34;5093917;28;19915;-83
2021/03/21 12:05:12;;;;;;;;;;;;;;;27.18;5.38;100654.25;5101381;28;19916;-82
2021/03/21 12:08:19;;;;;;;;;;;;;;;25.54;6.37;100645.03;5094952;28;19916;-82
2021/03/21 12:11:27;;;;;;;;;;;;;;;24.30;6.62;100640.03;5093995;28;19916;-82
2021/03/21 12:14:18;;;;;;;;;;;;;;;25.07;6.68;100627.34;5093950;28;19916;-82
2021/03/21 12:17:21;;;;;;;;;;;;;;;23.54;7.59;100618.72;5098697;28;19916;-81
2021/03/21 12:20:23;;;;;;;;;;;;;;;22.07;8.26;100616.72;5095775;28;20383;-81
2021/03/21 12:23:23;;;;;;;;;;;;;;;23.62;7.38;100622.28;5096654;28;19920;-81
2021/03/21 12:26:12;;;;;;;;;;;;;;;23.11;7.60;100620.13;5097871;28;19916;-81
2021/03/21 12:29:22;;;;;;;;;;;;;;;20.05;9.01;100603.91;5101293;28;19916;-81
2021/03/21 12:32:35;;;;;;;;;;;;;;;17.90;11.20;100599.94;5099928;28;20295;-80
2021/03/21 12:35:22;;;;;;;;;;;;;;;18.38;10.49;100595.59;5071189;28;19916;-81
2021/03/21 12:38:24;;;;;;;;;;;;;;;19.02;9.92;100593.75;5101464;28;19920;-81
2021/03/21 12:41:29;;;;;;;;;;;;;;;19.00;10.46;100587.78;5094150;28;20186;-83
2021/03/21 12:44:43;;;;;;;;;;;;;;;19.50;10.12;100581.72;5100943;28;19916;-81
2021/03/21 12:47:34;;;;;;;;;;;;;;;20.13;9.60;100569.66;5086169;28;19920;-81
2021/03/21 12:50:24;;;;;;;;;;;;;;;21.06;8.73;100574.56;5098655;28;19916;-81
2021/03/21 12:53:22;;;;;;;;;;;;;;;23.00;7.71;100579.34;5095194;28;19924;-81
2021/03/21 12:56:06;;;;;;;;;;;;;;;21.96;9.27;100574.38;5100237;28;19916;-82
2021/03/21 12:58:51;;;;;;;;;;;;;;;21.60;8.26;100561.66;5100126;28;19916;-81
2021/03/21 13:01:42;;;;;;;;;;;;;;;21.58;8.53;100548.25;5094620;28;19916;-81
2021/03/21 13:04:27;;;;;;;;;;;;;;;22.13;8.13;100547.88;5099948;28;19920;-82
2021/03/21 13:07:12;;;;;;;;;;;;;;;20.93;8.89;100540.13;5100000;28;19916;-82
2021/03/21 13:09:57;;;;;;;;;;;;;;;20.96;8.82;100528.31;5099770;28;19916;-81
2021/03/21 13:12:42;;;;;;;;;;;;;;;21.32;8.81;100523.69;5095789;28;19920;-81
2021/03/21 13:15:27;;;;;;;;;;;;;;;19.03;9.99;100520.91;5097379;28;19920;-83
2021/03/21 13:18:22;;;;;;;;;;;;;;;18.48;10.33;100515.09;5082836;28;19916;-80
2021/03/21 13:21:09;;;;;;;;;;;;;;;19.26;9.69;100506.97;5087807;28;19916;-81
2021/03/21 13:23:53;;;;;;;;;;;;;;;20.63;8.89;100510.00;5073184;28;19917;-81
2021/03/21 13:26:46;;;;;;;;;;;;;;;21.50;8.93;100504.31;5090221;28;19920;-82
2021/03/21 13:29:31;;;;;;;;;;;;;;;22.52;9.28;100493.13;5100025;28;19924;-83
2021/03/21 13:32:16;;;;;;;;;;;;;;;23.34;7.95;100490.75;5097396;28;19920;-81
2021/03/21 13:35:02;;;;;;;;;;;;;;;27.46;5.34;100488.84;5092659;28;20315;-82
2021/03/21 13:37:46;;;;;;;;;;;;;;;29.19;5.03;100483.31;5071959;28;19917;-81
2021/03/21 13:40:34;;;;;;;;;;;;;;;31.41;4.00;100486.97;5084777;28;19917;-81
2021/03/21 13:43:21;;;;;;;;;;;;;;;30.69;3.63;100474.13;5084661;28;19916;-83
2021/03/21 13:46:05;;;;;;;;;;;;;;;30.02;3.98;100476.59;5087853;28;19916;-81
2021/03/21 13:48:50;;;;;;;;;;;;;;;31.27;3.61;100459.44;5084775;28;19916;-81
2021/03/21 13:51:35;;;;;;;;;;;;;;;30.51;4.05;100449.56;5087175;28;19928;-81
2021/03/21 13:54:21;;;;;;;;;;;;;;;30.95;4.18;100455.09;5081587;28;20368;-81
2021/03/21 13:57:06;;;;;;;;;;;;;;;31.93;3.65;100449.44;5070222;28;19916;-80
2021/03/21 13:59:51;;;;;;;;;;;;;;;29.40;4.56;100437.03;5083652;28;19916;-81
2021/03/21 14:02:35;;;;;;;;;;;;;;;28.87;5.08;100436.69;5085622;28;19921;-82
2021/03/21 14:05:21;;;;;;;;;;;;;;;30.08;4.79;100435.50;5087859;28;19916;-83
2021/03/21 14:08:06;;;;;;;;;;;;;;;27.19;5.33;100427.66;5084392;28;21200;-82
2021/03/21 14:10:51;;;;;;;;;;;;;;;24.94;6.48;100412.06;5074187;28;19916;-82
2021/03/21 14:13:36;;;;;;;;;;;;;;;24.49;7.25;100405.91;5084131;22;20373;-83
2021/03/21 14:16:20;;;;;;;;;;;;;;;23.02;8.17;100402.19;5075306;28;20294;-83
2021/03/21 14:19:05;;;;;;;;;;;;;;;22.90;7.83;100388.81;5074213;28;19917;-83
2021/03/21 14:21:50;;;;;;;;;;;;;;;22.59;8.09;100390.56;5068185;28;19917;-83
2021/03/21 14:24:34;;;;;;;;;;;;;;;21.54;8.40;100383.34;5070999;28;19917;-83
2021/03/21 14:27:20;;;;;;;;;;;;;;;21.60;9.03;100373.47;5077063;28;19916;-83
2021/03/21 14:30:06;;;;;;;;;;;;;;;17.95;11.61;100354.75;5078077;28;20382;-83
2021/03/21 14:32:51;;;;;;;;;;;;;;;16.52;12.26;100352.81;5080804;28;19925;-83
2021/03/21 14:35:38;;;;;;;;;;;;;;;16.12;13.32;100348.50;5079493;28;19917;-83
2021/03/21 14:38:24;;;;;;;;;;;;;;;15.79;13.24;100342.72;5075803;28;19916;-85
2021/03/21 14:41:10;;;;;;;;;;;;;;;15.63;13.81;100341.97;5080232;28;19920;-85
2021/03/21 14:43:55;;;;;;;;;;;;;;;16.23;13.52;100344.03;5077128;28;19916;-85
2021/03/21 14:46:39;;;;;;;;;;;;;;;15.41;13.88;100324.22;5076865;28;19916;-85
2021/03/21 14:49:24;;;;;;;;;;;;;;;15.36;13.97;100319.81;5082941;28;19920;-86